createdAt,value
2022-11-11T00:02:42.275Z,93304.47
2022-11-11T00:05:29.862Z,93311.38
2022-11-11T00:08:17.464Z,93312.28
2022-11-11T00:11:05.042Z,93313.59
2022-11-11T00:13:52.633Z,93309.81
2022-11-11T00:16:40.221Z,93302.28
2022-11-11T00:19:27.795Z,93306.81
2022-11-11T00:22:17.344Z,93308.09
2022-11-11T00:25:04.924Z,93312.78
2022-11-11T00:27:52.498Z,93311.84
2022-11-11T00:30:40.062Z,93314.78
2022-11-11T00:33:27.642Z,93315.56
2022-11-11T00:36:15.538Z,93323.09
2022-11-11T00:39:03.096Z,93316.78
2022-11-11T00:41:50.680Z,93315.22
2022-11-11T00:44:38.279Z,93316.63
2022-11-11T00:47:25.963Z,93326.47
2022-11-11T00:50:13.562Z,93321.31
2022-11-11T00:53:01.214Z,93320.97
2022-11-11T00:55:48.846Z,93320.34
2022-11-11T00:58:36.472Z,93321.53
2022-11-11T01:01:24.158Z,93311.72
2022-11-11T01:04:11.788Z,93311.69
2022-11-11T01:06:59.533Z,93318.69
2022-11-11T01:09:47.265Z,93318.88
2022-11-11T01:12:34.979Z,93309.28
2022-11-11T01:15:22.579Z,93323.53
2022-11-11T01:18:10.167Z,93318.97
2022-11-11T01:20:57.916Z,93325.84
2022-11-11T01:23:45.751Z,93320.94
2022-11-11T01:26:33.328Z,93321.53
2022-11-11T01:29:20.995Z,93318.56
2022-11-11T01:32:08.657Z,93338.03
2022-11-11T01:34:56.265Z,93338.81
2022-11-11T01:37:43.858Z,93339.13
2022-11-11T01:40:31.485Z,93338.97
2022-11-11T01:43:19.181Z,93344.47
2022-11-11T01:46:06.790Z,93349.88
2022-11-11T01:48:54.373Z,93349.72
2022-11-11T01:51:41.983Z,93338.97
2022-11-11T01:54:29.694Z,93343.88
2022-11-11T01:57:17.387Z,93336.91
2022-11-11T02:00:05.151Z,93339.19
2022-11-11T02:02:53.029Z,93339.63
2022-11-11T02:05:40.703Z,93344.56
2022-11-11T02:08:28.294Z,93342.94
2022-11-11T02:11:15.880Z,93348.38
2022-11-11T02:14:03.561Z,93348.78
2022-11-11T02:16:51.264Z,93340.00
2022-11-11T02:19:38.998Z,93349.19
2022-11-11T02:22:26.676Z,93358.31
2022-11-11T02:25:16.325Z,93361.56
2022-11-11T02:28:04.089Z,93364.66
2022-11-11T02:30:51.798Z,93354.03
2022-11-11T02:33:39.578Z,93358.81
2022-11-11T02:36:27.161Z,93358.53
2022-11-11T02:39:14.885Z,93361.66
2022-11-11T02:42:02.624Z,93363.44
2022-11-11T02:44:50.383Z,93364.31
2022-11-11T02:47:38.046Z,93359.69
2022-11-11T02:50:25.785Z,93365.25
2022-11-11T02:53:13.389Z,93372.41
2022-11-11T02:56:01.080Z,93375.31
2022-11-11T02:58:49.102Z,93380.97
2022-11-11T03:01:37.064Z,93379.03
2022-11-11T03:04:24.796Z,93382.94
2022-11-11T03:07:12.443Z,93385.91
2022-11-11T03:10:00.322Z,93389.31
2022-11-11T03:12:48.142Z,93393.44
2022-11-11T03:15:35.748Z,93408.13
2022-11-11T03:18:23.418Z,93404.88
2022-11-11T03:22:09.999Z,93394.72
2022-11-11T03:24:18.552Z,93402.06
2022-11-11T03:27:06.154Z,93404.16
2022-11-11T03:29:53.728Z,93400.34
2022-11-11T03:32:41.283Z,93400.31
2022-11-11T03:35:28.917Z,93407.38
2022-11-11T03:38:16.488Z,93405.56
2022-11-11T03:41:04.078Z,93408.72
2022-11-11T03:43:51.657Z,93408.16
2022-11-11T03:46:39.251Z,93422.97
2022-11-11T03:49:26.797Z,93421.81
2022-11-11T03:52:14.397Z,93423.81
2022-11-11T03:55:01.961Z,93416.00
2022-11-11T03:57:49.563Z,93424.69
2022-11-11T04:00:37.121Z,93421.97
2022-11-11T04:03:25.124Z,93416.94
2022-11-11T04:06:12.980Z,93411.88
2022-11-11T04:09:00.592Z,93420.78
2022-11-11T04:11:48.182Z,93418.03
2022-11-11T04:14:55.708Z,93428.88
2022-11-11T04:17:43.572Z,93440.69
2022-11-11T04:20:31.186Z,93441.16
2022-11-11T04:23:18.791Z,93442.13
2022-11-11T04:26:06.335Z,93440.22
2022-11-11T04:28:53.894Z,93439.13
2022-11-11T04:31:41.468Z,93439.75
2022-11-11T04:34:29.026Z,93441.28
2022-11-11T04:37:16.690Z,93438.75
2022-11-11T04:40:06.248Z,93434.63
2022-11-11T04:42:53.847Z,93429.03
2022-11-11T04:45:41.434Z,93429.41
2022-11-11T04:48:29.025Z,93422.41
2022-11-11T04:51:16.577Z,93425.91
2022-11-11T04:54:04.149Z,93429.69
2022-11-11T04:56:51.724Z,93430.31
2022-11-11T04:59:39.314Z,93432.94
2022-11-11T05:02:26.886Z,93440.16
2022-11-11T05:05:14.485Z,93440.44
2022-11-11T05:08:02.041Z,93431.75
2022-11-11T05:10:49.624Z,93436.94
2022-11-11T05:13:37.199Z,93429.59
2022-11-11T05:16:24.755Z,93431.47
2022-11-11T05:19:12.341Z,93427.41
2022-11-11T05:21:59.913Z,93430.41
2022-11-11T05:24:47.502Z,93436.66
2022-11-11T05:27:35.091Z,93440.38
2022-11-11T05:30:22.651Z,93439.56
2022-11-11T05:33:10.316Z,93445.00
2022-11-11T05:35:59.872Z,93441.66
2022-11-11T05:38:47.455Z,93448.25
2022-11-11T05:41:35.070Z,93442.00
2022-11-11T05:44:22.658Z,93443.91
2022-11-11T05:47:10.267Z,93439.84
2022-11-11T05:49:57.838Z,93447.25
2022-11-11T05:52:45.422Z,93449.66
2022-11-11T05:55:32.985Z,93454.94
2022-11-11T05:58:20.562Z,93451.19
2022-11-11T06:01:08.126Z,93455.75
2022-11-11T06:03:55.728Z,93454.28
2022-11-11T06:06:43.353Z,93464.28
2022-11-11T06:09:30.942Z,93452.03
2022-11-11T06:12:18.515Z,93454.50
2022-11-11T06:15:06.091Z,93447.50
2022-11-11T06:17:53.686Z,93462.31
2022-11-11T06:20:41.361Z,93467.41
2022-11-11T06:23:28.946Z,93461.72
2022-11-11T06:26:16.538Z,93463.25
2022-11-11T06:29:04.144Z,93463.63
2022-11-11T06:31:51.725Z,93457.50
2022-11-11T06:34:39.330Z,93463.84
2022-11-11T06:37:26.915Z,93473.22
2022-11-11T06:40:18.914Z,93479.66
2022-11-11T06:43:09.249Z,93484.03
2022-11-11T06:45:56.838Z,93475.28
2022-11-11T06:48:44.419Z,93476.41
2022-11-11T06:51:32.043Z,93475.13
2022-11-11T06:54:19.620Z,93475.63
2022-11-11T06:57:08.657Z,93480.50
2022-11-11T06:59:56.435Z,93486.75
2022-11-11T07:02:44.022Z,93488.75
2022-11-11T07:05:31.596Z,93490.53
2022-11-11T07:08:19.288Z,93494.72
2022-11-11T07:11:15.608Z,93489.16
2022-11-11T07:14:06.212Z,93486.41
2022-11-11T07:16:53.792Z,93484.81
2022-11-11T07:19:41.572Z,93492.63
2022-11-11T07:22:31.129Z,93495.41
2022-11-11T07:25:21.841Z,93494.47
2022-11-11T07:28:09.421Z,93492.75
2022-11-11T07:30:57.026Z,93494.34
2022-11-11T07:33:44.588Z,93498.72
2022-11-11T07:36:32.175Z,93496.25
2022-11-11T07:39:19.754Z,93496.84
2022-11-11T07:42:08.927Z,93508.84
2022-11-11T07:44:58.491Z,93508.69
2022-11-11T07:47:46.091Z,93515.28
2022-11-11T07:50:33.673Z,93514.69
2022-11-11T07:53:21.533Z,93520.34
2022-11-11T07:56:09.338Z,93520.56
2022-11-11T07:58:56.925Z,93519.41
2022-11-11T08:01:44.517Z,93519.06
2022-11-11T08:04:32.114Z,93528.50
2022-11-11T08:07:22.937Z,93522.16
2022-11-11T08:10:11.162Z,93521.13
2022-11-11T08:12:58.740Z,93518.63
2022-11-11T08:15:46.347Z,93527.34
2022-11-11T08:18:33.910Z,93532.47
2022-11-11T08:21:21.530Z,93530.28
2022-11-11T08:25:01.490Z,93532.53
2022-11-11T08:27:16.633Z,93530.66
2022-11-11T08:30:04.221Z,93540.09
2022-11-11T08:33:11.787Z,93538.91
2022-11-11T08:35:59.343Z,93535.75
2022-11-11T08:38:46.930Z,93546.00
2022-11-11T08:41:34.514Z,93550.53
2022-11-11T08:44:22.088Z,93548.47
2022-11-11T08:47:09.685Z,93549.00
2022-11-11T08:49:57.261Z,93556.78
2022-11-11T08:52:44.871Z,93557.84
2022-11-11T08:55:32.456Z,93546.84
2022-11-11T08:58:21.014Z,93559.19
2022-11-11T09:01:08.644Z,93561.94
2022-11-11T09:03:56.238Z,93556.56
2022-11-11T09:06:43.838Z,93555.72
2022-11-11T09:09:31.465Z,93559.31
2022-11-11T09:12:19.072Z,93554.78
2022-11-11T09:15:06.660Z,93564.81
2022-11-11T09:17:54.245Z,93568.22
2022-11-11T09:20:41.823Z,93571.66
2022-11-11T09:23:29.421Z,93577.88
2022-11-11T09:26:16.997Z,93579.22
2022-11-11T09:29:04.593Z,93580.09
2022-11-11T09:31:52.180Z,93578.09
2022-11-11T09:34:39.758Z,93580.59
2022-11-11T09:37:27.413Z,93589.59
2022-11-11T09:40:14.991Z,93581.56
2022-11-11T09:43:02.572Z,93582.78
2022-11-11T09:45:50.158Z,93591.56
2022-11-11T09:48:37.753Z,93595.06
2022-11-11T09:51:25.357Z,93600.56
2022-11-11T09:54:12.947Z,93608.34
2022-11-11T09:57:00.513Z,93604.25
2022-11-11T09:59:48.085Z,93600.00
2022-11-11T10:02:35.655Z,93594.41
2022-11-11T10:05:23.261Z,93587.28
2022-11-11T10:08:10.841Z,93591.97
2022-11-11T10:10:58.438Z,93586.97
2022-11-11T10:13:46.031Z,93585.13
2022-11-11T10:16:33.623Z,93582.88
2022-11-11T10:19:21.189Z,93579.16
2022-11-11T10:22:13.401Z,93579.88
2022-11-11T10:25:01.360Z,93583.28
2022-11-11T10:27:49.025Z,93580.19
2022-11-11T10:30:36.611Z,93570.59
2022-11-11T10:33:24.204Z,93568.19
2022-11-11T10:36:11.805Z,93562.59
2022-11-11T10:38:59.392Z,93565.13
2022-11-11T10:41:49.029Z,93561.53
2022-11-11T10:44:36.591Z,93556.47
2022-11-11T10:47:24.193Z,93556.69
2022-11-11T10:50:11.803Z,93552.66
2022-11-11T10:52:59.375Z,93553.06
2022-11-11T10:55:46.966Z,93546.28
2022-11-11T10:58:34.568Z,93546.25
2022-11-11T11:01:22.259Z,93540.88
2022-11-11T11:04:09.881Z,93543.00
2022-11-11T11:06:57.478Z,93536.88
2022-11-11T11:09:45.094Z,93536.06
2022-11-11T11:12:32.697Z,93530.16
2022-11-11T11:15:20.277Z,93521.72
2022-11-11T11:18:07.891Z,93519.84
2022-11-11T11:20:55.477Z,93520.22
2022-11-11T11:23:43.082Z,93509.78
2022-11-11T11:26:30.631Z,93510.00
2022-11-11T11:29:18.208Z,93504.34
2022-11-11T11:32:05.810Z,93497.41
2022-11-11T11:34:53.366Z,93491.78
2022-11-11T11:37:40.937Z,93493.78
2022-11-11T11:40:28.516Z,93497.78
2022-11-11T11:43:16.097Z,93484.09
2022-11-11T11:46:08.081Z,93485.81
2022-11-11T11:48:56.032Z,93486.56
2022-11-11T11:51:43.624Z,93473.44
2022-11-11T11:54:31.200Z,93484.38
2022-11-11T11:57:18.797Z,93485.16
2022-11-11T12:00:06.374Z,93484.00
2022-11-11T12:02:53.960Z,93480.50
2022-11-11T12:05:41.581Z,93468.84
2022-11-11T12:08:29.159Z,93461.75
2022-11-11T12:11:16.739Z,93466.78
2022-11-11T12:14:04.434Z,93461.91
2022-11-11T12:16:54.005Z,93455.19
2022-11-11T12:19:41.605Z,93455.25
2022-11-11T12:22:29.204Z,93448.66
2022-11-11T12:25:16.775Z,93444.06
2022-11-11T12:28:04.350Z,93441.66
2022-11-11T12:30:52.017Z,93435.94
2022-11-11T12:33:39.576Z,93438.19
2022-11-11T12:36:27.196Z,93439.53
2022-11-11T12:39:15.459Z,93440.50
2022-11-11T12:42:03.055Z,93431.41
2022-11-11T12:44:50.620Z,93422.56
2022-11-11T12:47:38.301Z,93424.03
2022-11-11T12:50:25.876Z,93422.78
2022-11-11T12:53:13.460Z,93425.97
2022-11-11T12:56:01.035Z,93421.16
2022-11-11T12:58:48.580Z,93423.88
2022-11-11T13:01:36.197Z,93408.97
2022-11-11T13:04:23.780Z,93413.97
2022-11-11T13:07:11.463Z,93413.91
2022-11-11T13:09:59.078Z,93417.06
2022-11-11T13:12:46.670Z,93410.00
2022-11-11T13:15:34.245Z,93405.16
2022-11-11T13:18:21.827Z,93406.31
2022-11-11T13:21:09.397Z,93404.63
2022-11-11T13:23:56.993Z,93401.47
2022-11-11T13:26:44.576Z,93408.75
2022-11-11T13:29:32.210Z,93409.69
2022-11-11T13:32:19.815Z,93398.72
2022-11-11T13:35:07.405Z,93395.59
2022-11-11T13:37:55.009Z,93395.00
2022-11-11T13:40:42.577Z,93402.94
2022-11-11T13:43:30.188Z,93402.31
2022-11-11T13:46:17.761Z,93399.06
2022-11-11T13:49:05.364Z,93411.34
2022-11-11T13:51:52.923Z,93404.88
2022-11-11T13:54:40.617Z,93413.00
2022-11-11T13:57:30.200Z,93410.41
2022-11-11T14:00:17.808Z,93412.31
2022-11-11T14:03:05.366Z,93403.75
2022-11-11T14:05:52.973Z,93404.78
2022-11-11T14:08:40.545Z,93407.81
2022-11-11T14:11:28.127Z,93404.66
2022-11-11T14:14:15.706Z,93408.72
2022-11-11T14:17:03.286Z,93402.75
2022-11-11T14:19:50.867Z,93414.66
2022-11-11T14:22:38.434Z,93419.28
2022-11-11T14:25:25.996Z,93416.56
2022-11-11T14:28:14.671Z,93413.25
2022-11-11T14:31:02.270Z,93419.22
2022-11-11T14:33:49.859Z,93411.06
2022-11-11T14:36:37.479Z,93417.16
2022-11-11T14:39:25.070Z,93411.03
2022-11-11T14:42:12.646Z,93413.13
2022-11-11T14:45:00.248Z,93421.00
2022-11-11T14:47:47.807Z,93407.94
2022-11-11T14:50:35.393Z,93411.28
2022-11-11T14:53:23.231Z,93409.31
2022-11-11T14:56:11.012Z,93414.28
2022-11-11T14:58:58.575Z,93414.72
2022-11-11T15:01:46.237Z,93408.25
2022-11-11T15:04:33.859Z,93415.56
2022-11-11T15:07:21.490Z,93415.19
2022-11-11T15:10:09.133Z,93421.56
2022-11-11T15:12:56.725Z,93425.44
2022-11-11T15:15:44.320Z,93414.94
2022-11-11T15:18:31.920Z,93419.47
2022-11-11T15:21:19.502Z,93419.84
2022-11-11T15:24:07.096Z,93414.31
2022-11-11T15:26:54.702Z,93418.13
2022-11-11T15:29:42.301Z,93417.78
2022-11-11T15:32:30.023Z,93422.03
2022-11-11T15:35:17.650Z,93429.06
2022-11-11T15:38:05.426Z,93425.44
2022-11-11T15:40:53.006Z,93430.25
2022-11-11T15:43:40.590Z,93432.06
2022-11-11T15:46:28.186Z,93436.13
2022-11-11T15:49:15.769Z,93438.44
2022-11-11T15:52:03.361Z,93433.38
2022-11-11T15:54:50.953Z,93438.31
2022-11-11T15:57:38.537Z,93435.38
2022-11-11T16:00:26.098Z,93431.84
2022-11-11T16:03:13.692Z,93430.00
2022-11-11T16:06:06.949Z,93426.69
2022-11-11T16:08:34.206Z,93431.09
2022-11-11T16:11:01.549Z,93435.94
2022-11-11T16:13:28.881Z,93424.72
2022-11-11T16:15:56.249Z,93433.38
2022-11-11T16:18:25.834Z,93423.75
2022-11-11T16:20:53.241Z,93427.19
2022-11-11T16:23:20.518Z,93420.50
2022-11-11T16:25:52.315Z,93420.53
2022-11-11T16:28:20.869Z,93432.06
2022-11-11T16:30:48.165Z,93426.25
2022-11-11T16:33:15.425Z,93428.88
2022-11-11T16:35:42.702Z,93430.63
2022-11-11T16:38:09.983Z,93435.69
2022-11-11T16:40:37.254Z,93431.81
2022-11-11T16:43:04.521Z,93443.06
2022-11-11T16:45:31.793Z,93435.47
2022-11-11T16:47:59.038Z,93444.59
2022-11-11T16:50:26.313Z,93455.63
2022-11-11T16:52:53.561Z,93444.16
2022-11-11T16:55:20.815Z,93448.75
2022-11-11T16:57:48.080Z,93445.28
2022-11-11T17:00:15.351Z,93452.41
2022-11-11T17:02:42.638Z,93455.56
2022-11-11T17:05:09.883Z,93459.94
2022-11-11T17:07:37.152Z,93454.88
2022-11-11T17:10:04.403Z,93449.88
2022-11-11T17:12:31.669Z,93452.00
2022-11-11T17:14:58.938Z,93453.06
2022-11-11T17:17:26.248Z,93452.75
2022-11-11T17:19:53.517Z,93450.91
2022-11-11T17:22:20.788Z,93453.16
2022-11-11T17:24:48.036Z,93455.28
2022-11-11T17:27:15.280Z,93448.94
2022-11-11T17:29:42.552Z,93456.56
2022-11-11T17:32:09.937Z,93454.47
2022-11-11T17:34:37.204Z,93460.38
2022-11-11T17:37:04.483Z,93461.88
2022-11-11T17:39:31.733Z,93459.25
2022-11-11T17:41:58.994Z,93464.78
2022-11-11T17:44:45.148Z,93466.47
2022-11-11T17:47:31.004Z,93463.53
2022-11-11T17:50:16.801Z,93474.06
2022-11-11T17:53:02.695Z,93471.19
2022-11-11T17:55:48.537Z,93471.31
2022-11-11T17:58:39.822Z,93465.44
2022-11-11T18:01:26.928Z,93470.06
2022-11-11T18:04:12.913Z,93467.97
2022-11-11T18:06:58.924Z,93470.22
2022-11-11T18:09:44.842Z,93469.13
2022-11-11T18:12:30.779Z,93475.47
2022-11-11T18:15:16.656Z,93473.44
2022-11-11T18:18:02.435Z,93464.59
2022-11-11T18:20:48.237Z,93472.66
2022-11-11T18:23:34.274Z,93477.63
2022-11-11T18:26:20.209Z,93475.81
2022-11-11T18:29:05.965Z,93479.19
2022-11-11T18:31:55.951Z,93487.94
2022-11-11T18:34:42.347Z,93482.38
2022-11-11T18:37:28.174Z,93481.38
2022-11-11T18:40:15.762Z,93479.53
2022-11-11T18:43:03.418Z,93493.28
2022-11-11T18:45:51.011Z,93488.03
2022-11-11T18:48:38.583Z,93499.75
2022-11-11T18:51:26.166Z,93494.16
2022-11-11T18:54:13.760Z,93489.19
2022-11-11T18:57:01.368Z,93492.56
2022-11-11T18:59:48.934Z,93493.34
2022-11-11T19:02:36.536Z,93493.06
2022-11-11T19:05:24.096Z,93481.66
2022-11-11T19:08:11.686Z,93480.00
2022-11-11T19:10:59.258Z,93492.03
2022-11-11T19:13:46.849Z,93495.59
2022-11-11T19:16:34.434Z,93483.09
2022-11-11T19:19:22.011Z,93483.69
2022-11-11T19:22:09.590Z,93474.13
2022-11-11T19:24:57.189Z,93478.56
2022-11-11T19:27:44.746Z,93481.38
2022-11-11T19:30:32.332Z,93476.88
2022-11-11T19:33:19.900Z,93487.19
2022-11-11T19:36:07.501Z,93481.19
2022-11-11T19:38:55.067Z,93484.09
2022-11-11T19:41:42.654Z,93493.66
2022-11-11T19:44:30.250Z,93487.78
2022-11-11T19:47:17.837Z,93494.78
2022-11-11T19:50:05.516Z,93501.44
2022-11-11T19:52:53.078Z,93495.78
2022-11-11T19:55:40.686Z,93500.50
2022-11-11T19:58:28.283Z,93513.06
2022-11-11T20:01:15.958Z,93505.19
2022-11-11T20:04:03.601Z,93506.06
2022-11-11T20:06:51.291Z,93501.34
2022-11-11T20:09:38.883Z,93512.25
2022-11-11T20:12:26.504Z,93514.13
2022-11-11T20:15:14.065Z,93507.13
2022-11-11T20:18:01.644Z,93506.09
2022-11-11T20:20:49.227Z,93515.50
2022-11-11T20:23:36.821Z,93509.19
2022-11-11T20:26:24.410Z,93512.38
2022-11-11T20:29:11.986Z,93519.16
2022-11-11T20:31:59.537Z,93528.88
2022-11-11T20:34:47.144Z,93526.63
2022-11-11T20:37:34.740Z,93519.94
2022-11-11T20:40:22.295Z,93525.13
2022-11-11T20:43:09.875Z,93524.81
2022-11-11T20:45:57.454Z,93529.78
2022-11-11T20:48:45.001Z,93530.97
2022-11-11T20:51:32.597Z,93526.91
2022-11-11T20:54:20.189Z,93534.16
2022-11-11T20:57:07.747Z,93533.06
2022-11-11T20:59:55.419Z,93521.31
2022-11-11T21:02:42.974Z,93523.72
2022-11-11T21:05:30.534Z,93522.28
2022-11-11T21:08:18.139Z,93521.31
2022-11-11T21:11:05.689Z,93526.72
2022-11-11T21:13:53.280Z,93529.97
2022-11-11T21:16:40.908Z,93521.59
2022-11-11T21:19:28.506Z,93520.91
2022-11-11T21:22:16.055Z,93523.91
2022-11-11T21:25:03.631Z,93521.56
2022-11-11T21:27:51.198Z,93522.59
2022-11-11T21:30:38.786Z,93525.06
2022-11-11T21:33:26.613Z,93521.66
2022-11-11T21:36:14.481Z,93523.25
2022-11-11T21:39:02.172Z,93521.91
2022-11-11T21:41:49.795Z,93524.41
2022-11-11T21:44:37.463Z,93526.41
2022-11-11T21:47:27.006Z,93530.91
2022-11-11T21:50:14.579Z,93535.44
2022-11-11T21:53:02.223Z,93526.56
2022-11-11T21:55:49.850Z,93525.69
2022-11-11T21:58:37.452Z,93517.22
2022-11-11T22:01:29.751Z,93513.56
2022-11-11T22:04:17.840Z,93523.69
2022-11-11T22:07:05.460Z,93513.44
2022-11-11T22:09:53.122Z,93520.75
2022-11-11T22:12:40.724Z,93524.38
2022-11-11T22:15:28.314Z,93522.72
2022-11-11T22:18:15.875Z,93520.06
2022-11-11T22:21:03.479Z,93515.16
2022-11-11T22:23:51.033Z,93524.78
2022-11-11T22:26:38.607Z,93528.97
2022-11-11T22:29:26.150Z,93524.53
2022-11-11T22:32:13.717Z,93522.44
2022-11-11T22:35:01.297Z,93521.34
2022-11-11T22:37:49.120Z,93517.44
2022-11-11T22:40:36.829Z,93524.72
2022-11-11T22:43:45.621Z,93515.28
2022-11-11T22:46:31.974Z,93520.22
2022-11-11T22:49:21.578Z,93528.50
2022-11-11T22:52:09.142Z,93521.66
2022-11-11T22:54:56.729Z,93519.41
2022-11-11T22:57:44.333Z,93521.50
2022-11-11T23:00:31.874Z,93518.59
2022-11-11T23:03:19.444Z,93523.47
2022-11-11T23:06:07.082Z,93521.75
2022-11-11T23:08:54.678Z,93533.63
2022-11-11T23:11:42.227Z,93532.63
2022-11-11T23:14:29.829Z,93527.81
2022-11-11T23:17:17.405Z,93524.53
2022-11-11T23:20:04.986Z,93527.06
2022-11-11T23:22:52.556Z,93513.44
2022-11-11T23:25:40.146Z,93513.69
2022-11-11T23:28:28.085Z,93507.88
2022-11-11T23:31:15.913Z,93512.41
2022-11-11T23:34:03.493Z,93521.59
2022-11-11T23:36:51.110Z,93517.75
2022-11-11T23:39:38.692Z,93522.22
2022-11-11T23:42:26.330Z,93532.09
2022-11-11T23:45:13.897Z,93528.06
2022-11-11T23:48:01.458Z,93533.50
2022-11-11T23:50:49.060Z,93527.31
2022-11-11T23:53:36.687Z,93528.72
2022-11-11T23:56:24.266Z,93518.84
2022-11-11T23:59:11.841Z,93508.34
